Birmingham-Shuttlesworth International Airport
KBHM : now visible

Airfield :











YOU CAN JOIN US ON...

 
LOGIN :

Register | Disclaimer

   EN    FR    IT 

 









Legend :    VFR   Marginal VFR   IFR   Intensive IFR   Very Intensive IFR
Visi :
Ceiling :
>= 8 km
>= 3000ft
5 to 8 km
1000 to 3000 ft
1500m to 5 km
500 to 1000 ft
800 to 1500m
200 to 500 ft
< 800m
< 200 ft
Symbols :   Thunderstorms  Fog  Heavy snow  Heavy precipitations  Wind > 20 kt






- Airport Elevation : 650 ft
- IATA code : BHM


KBHM - Birmingham-Shuttlesworth International

CURRENT METAR :
  • 130353Z 10007KT 10SM OVC013 07/04 A3028 RMK AO2 SLP256 T00720039

EXPIRED METARs :
  • 130323Z 13009KT 10SM OVC013 07/03 A3029 RMK AO2 T00720033
  • 130253Z 11009G15KT 10SM OVC015 07/03 A3028 RMK AO2 SLP253 T00720033 58012
  • 130153Z 10012G19KT 10SM BKN018 OVC030 07/03 A3029 RMK AO2 SLP257 T00720033

TAF KBHM
Valid from the 13 at 01:00 until the 14 at 00:00 UTC


130129Z 1301/1324 12007KT P6SM OVC018
FM130700 13007KT 6SM -RA BR OVC007
FM131300 11007KT 4SM -RA BR OVC004



MET'MAP, your aeronautical weather chart ! - Copyright ORBIFLY December 2007 - Disclaimer

ORBIFLY MET'MAP TEAM :

Programming & Development : Alexandra Zaïnal
Concept & original design : Baudouin d'Aumeries
Assistance for programming : Marc-Olivier Méhu
Technical & hardware support : Manuel Goepfert

Contact : metmap@orbifly.com




SOURCES & CREDITS :

   NOAA       Earth
Advisory